読者です 読者をやめる 読者になる 読者になる

今朝の羽田(2017/04/23)

APJ898/JA817P(A320)

QFA25/VH-OJS(B744)

JAL36/JA701J(B772)

ANA880/JA877A(B789)

ANA968/JA835A(B788)

ANA850/JA887A(B789)

HKE624/B-LEC(A321)

JAL34/JA702J(B772)

ANA844/JA888A(B789)

*TTW217/B-50016(A320)

ANA856/JA879A(B789)

SIA636/9V-SWV(B77W)

THA682/HS-TGP(B744)

ANA204/JA786A(B77W)

*APJ859/JA817P(A320)

*ANA9372/JA804A(B788)

*AAR177/HL8259(A333)

JAL70/JA831J(B788)

*HKE625/B-LEC(A321)

N420EA(HDJT)

RJTT 222000Z 03007KT 9999 FEW020 BKN050 11/06 Q1013 NOSIG RMK 1CU020 7SC050 A2992

RJTT 222100Z 02007KT 9999 FEW015 BKN050 12/06 Q1014 NOSIG RMK 1CU015 6SC050 A2996

RJTT 222200Z 36007KT 330V050 9999 FEW030 BKN060 12/04 Q1015 NOSIG RMK 1CU030 6SC060 A2997

今朝の羽田は少し雲があります。